createdAt,value
2023-05-11T00:00:46.358Z,6.57
2023-05-11T00:03:14.852Z,5.83
2023-05-11T00:05:43.142Z,5.33
2023-05-11T00:08:14.221Z,5.03
2023-05-11T00:10:43.606Z,5.40
2023-05-11T00:13:11.649Z,6.03
2023-05-11T00:15:39.575Z,7.63
2023-05-11T00:18:07.660Z,6.23
2023-05-11T00:20:35.826Z,6.47
2023-05-11T00:23:04.402Z,6.07
2023-05-11T00:25:33.718Z,6.37
2023-05-11T00:28:01.851Z,6.60
2023-05-11T00:30:30.158Z,6.87
2023-05-11T00:32:58.422Z,6.10
2023-05-11T00:35:26.482Z,7.60
2023-05-11T00:37:54.341Z,6.93
2023-05-11T00:40:22.403Z,8.73
2023-05-11T00:42:51.618Z,6.53
2023-05-11T00:45:19.765Z,6.10
2023-05-11T00:47:48.263Z,5.87
2023-05-11T00:50:17.012Z,6.10
2023-05-11T00:52:45.582Z,6.53
2023-05-11T00:55:15.453Z,5.27
2023-05-11T00:57:43.402Z,4.67
2023-05-11T01:00:14.181Z,5.47
2023-05-11T01:02:43.383Z,4.23
2023-05-11T01:05:11.661Z,4.23
2023-05-11T01:07:48.715Z,4.73
2023-05-11T01:10:22.133Z,4.10
2023-05-11T01:12:58.252Z,4.33
2023-05-11T01:15:36.912Z,4.43
2023-05-11T01:18:16.613Z,4.27
2023-05-11T01:20:47.969Z,5.07
2023-05-11T01:23:55.210Z,4.97
2023-05-11T01:26:38.066Z,4.90
2023-05-11T01:29:19.172Z,5.40
2023-05-11T01:31:50.769Z,6.30
2023-05-11T01:34:21.675Z,4.17
2023-05-11T01:36:54.753Z,3.90
2023-05-11T01:39:28.417Z,3.80
2023-05-11T01:41:59.464Z,4.37
2023-05-11T01:44:32.428Z,4.07
2023-05-11T01:47:03.318Z,4.50
2023-05-11T01:49:34.599Z,4.90
2023-05-11T01:52:04.905Z,5.20
2023-05-11T01:54:34.609Z,3.90
2023-05-11T01:57:04.354Z,3.10
2023-05-11T01:59:34.150Z,4.10
2023-05-11T02:02:05.185Z,3.30
2023-05-11T02:04:33.612Z,2.97
2023-05-11T02:07:03.398Z,3.00
2023-05-11T02:09:33.467Z,3.80
2023-05-11T02:12:02.899Z,4.90
2023-05-11T02:14:35.039Z,4.17
2023-05-11T02:17:06.381Z,3.30
2023-05-11T02:19:36.703Z,3.40
2023-05-11T02:22:06.043Z,3.40
2023-05-11T02:24:36.432Z,2.87
2023-05-11T02:27:04.637Z,3.03
2023-05-11T02:29:33.167Z,4.97
2023-05-11T02:32:07.653Z,3.33
2023-05-11T02:34:41.085Z,5.00
2023-05-11T02:37:13.904Z,3.03
2023-05-11T02:39:46.915Z,3.77
2023-05-11T02:42:19.496Z,2.57
2023-05-11T02:44:54.668Z,3.27
2023-05-11T02:47:27.021Z,2.37
2023-05-11T02:49:57.280Z,3.03
2023-05-11T02:52:29.588Z,3.40
2023-05-11T02:54:59.746Z,2.43
2023-05-11T02:57:28.141Z,3.07
2023-05-11T02:59:58.961Z,3.13
2023-05-11T03:02:29.201Z,2.43
2023-05-11T03:04:57.327Z,3.13
2023-05-11T03:07:25.473Z,2.47
2023-05-11T03:09:54.036Z,2.33
2023-05-11T03:12:22.772Z,2.07
2023-05-11T03:14:51.576Z,3.97
2023-05-11T03:17:21.979Z,2.53
2023-05-11T03:19:53.348Z,3.00
2023-05-11T03:22:22.127Z,1.13
2023-05-11T03:24:51.459Z,1.90
2023-05-11T03:27:20.342Z,3.07
2023-05-11T03:29:51.151Z,1.10
2023-05-11T03:32:19.292Z,2.30
2023-05-11T03:34:48.228Z,2.50
2023-05-11T03:37:20.115Z,3.40
2023-05-11T03:39:51.753Z,2.07
2023-05-11T03:42:22.162Z,4.60
2023-05-11T03:44:55.948Z,3.43
2023-05-11T03:47:24.344Z,1.83
2023-05-11T03:49:53.393Z,2.30
2023-05-11T03:52:23.487Z,2.40
2023-05-11T03:54:51.767Z,3.10
2023-05-11T03:57:19.667Z,2.50
2023-05-11T03:59:48.083Z,2.20
2023-05-11T04:02:16.304Z,3.80
2023-05-11T04:04:44.525Z,4.43
2023-05-11T04:07:12.542Z,3.17
2023-05-11T04:09:42.128Z,2.53
2023-05-11T04:12:10.294Z,7.50
2023-05-11T04:14:38.459Z,5.20
2023-05-11T04:17:06.328Z,2.83
2023-05-11T04:19:34.329Z,3.60
2023-05-11T04:22:02.653Z,2.93
2023-05-11T04:24:31.454Z,4.50
2023-05-11T04:27:00.862Z,3.50
2023-05-11T04:29:28.797Z,3.30
2023-05-11T04:31:57.169Z,3.80
2023-05-11T04:34:27.052Z,5.13
2023-05-11T04:36:55.783Z,4.97
2023-05-11T04:39:23.664Z,3.67
2023-05-11T04:41:51.675Z,3.60
2023-05-11T04:44:21.199Z,5.33
2023-05-11T04:46:49.792Z,2.27
2023-05-11T04:49:17.730Z,2.70
2023-05-11T04:51:45.917Z,2.77
2023-05-11T04:54:15.466Z,3.83
2023-05-11T04:56:44.107Z,2.43
2023-05-11T04:59:12.288Z,6.37
2023-05-11T05:01:41.886Z,3.67
2023-05-11T05:04:09.971Z,5.10
2023-05-11T05:06:39.717Z,3.70
2023-05-11T05:09:07.690Z,4.10
2023-05-11T05:11:36.121Z,6.87
2023-05-11T05:14:04.104Z,3.07
2023-05-11T05:16:32.694Z,3.27
2023-05-11T05:19:02.310Z,3.63
2023-05-11T05:21:32.452Z,6.03
2023-05-11T05:24:00.277Z,4.13
2023-05-11T05:26:29.110Z,3.43
2023-05-11T05:28:57.294Z,3.40
2023-05-11T05:31:26.461Z,2.80
2023-05-11T05:33:54.522Z,3.37
2023-05-11T05:36:24.478Z,3.03
2023-05-11T05:38:52.390Z,3.43
2023-05-11T05:41:21.732Z,3.13
2023-05-11T05:43:49.692Z,2.43
2023-05-11T05:46:18.484Z,3.67
2023-05-11T05:48:46.424Z,4.53
2023-05-11T05:51:14.760Z,3.33
2023-05-11T05:53:44.604Z,2.87
2023-05-11T05:56:12.835Z,3.33
2023-05-11T05:58:41.120Z,4.30
2023-05-11T06:01:09.976Z,3.80
2023-05-11T06:03:40.230Z,2.83
2023-05-11T06:06:08.651Z,3.40
2023-05-11T06:08:36.556Z,2.83
2023-05-11T06:11:06.258Z,3.23
2023-05-11T06:13:34.116Z,2.60
2023-05-11T06:16:02.271Z,2.83
2023-05-11T06:18:34.112Z,2.60
2023-05-11T06:21:04.513Z,3.43
2023-05-11T06:23:33.479Z,3.40
2023-05-11T06:26:01.850Z,3.10
2023-05-11T06:28:33.589Z,4.30
2023-05-11T06:31:05.166Z,2.97
2023-05-11T06:33:37.030Z,3.33
2023-05-11T06:36:10.273Z,4.17
2023-05-11T06:38:38.627Z,3.17
2023-05-11T06:41:11.144Z,3.57
2023-05-11T06:43:42.341Z,4.33
2023-05-11T06:46:22.237Z,4.87
2023-05-11T06:48:50.773Z,3.67
2023-05-11T06:51:21.120Z,4.07
2023-05-11T06:53:49.927Z,4.23
2023-05-11T06:56:18.103Z,5.23
2023-05-11T06:58:47.402Z,4.33
2023-05-11T07:01:15.642Z,5.60
2023-05-11T07:03:43.613Z,4.33
2023-05-11T07:06:11.548Z,5.70
2023-05-11T07:08:39.632Z,5.57
2023-05-11T07:11:07.958Z,5.20
2023-05-11T07:13:36.056Z,5.80
2023-05-11T07:16:05.602Z,6.40
2023-05-11T07:18:33.964Z,6.17
2023-05-11T07:21:01.956Z,6.20
2023-05-11T07:23:30.341Z,5.77
2023-05-11T07:25:58.332Z,5.53
2023-05-11T07:28:26.403Z,5.90
2023-05-11T07:30:54.533Z,5.80
2023-05-11T07:33:23.907Z,6.80
2023-05-11T07:35:52.672Z,8.67
2023-05-11T07:38:20.920Z,7.87
2023-05-11T07:40:48.850Z,9.17
2023-05-11T07:43:16.954Z,8.67
2023-05-11T07:45:45.532Z,7.57
2023-05-11T07:48:13.777Z,7.87
2023-05-11T07:50:43.435Z,9.03
2023-05-11T07:53:11.976Z,8.90
2023-05-11T07:55:40.050Z,7.87
2023-05-11T07:58:08.249Z,8.53
2023-05-11T08:00:36.100Z,8.23
2023-05-11T08:03:04.164Z,8.33
2023-05-11T08:05:36.087Z,8.07
2023-05-11T08:08:06.010Z,8.13
2023-05-11T08:10:34.058Z,7.60
2023-05-11T08:13:02.227Z,8.43
2023-05-11T08:15:30.954Z,8.93
2023-05-11T08:17:59.004Z,9.60
2023-05-11T08:20:26.901Z,8.30
2023-05-11T08:22:55.212Z,9.33
2023-05-11T08:25:24.728Z,8.77
2023-05-11T08:27:52.753Z,8.87
2023-05-11T08:30:20.848Z,7.93
2023-05-11T08:32:58.112Z,8.47
2023-05-11T08:35:27.399Z,7.67
2023-05-11T08:37:55.485Z,8.70
2023-05-11T08:40:27.786Z,8.97
2023-05-11T08:42:57.375Z,9.07
2023-05-11T08:45:27.537Z,8.97
2023-05-11T08:47:55.839Z,9.73
2023-05-11T08:50:24.362Z,12.83
2023-05-11T08:52:52.522Z,9.57
2023-05-11T08:55:20.657Z,10.90
2023-05-11T08:57:52.413Z,10.30
2023-05-11T09:00:23.138Z,8.43
2023-05-11T09:02:52.347Z,10.70
2023-05-11T09:05:21.566Z,9.73
2023-05-11T09:07:53.774Z,11.63
2023-05-11T09:10:21.994Z,11.10
2023-05-11T09:12:51.375Z,12.23
2023-05-11T09:15:19.437Z,11.60
2023-05-11T09:17:48.228Z,15.30
2023-05-11T09:20:16.671Z,13.27
2023-05-11T09:22:46.086Z,12.00
2023-05-11T09:25:15.232Z,11.37
2023-05-11T09:27:43.601Z,12.37
2023-05-11T09:30:22.193Z,11.23
2023-05-11T09:32:52.138Z,11.80
2023-05-11T09:35:22.026Z,11.27
2023-05-11T09:38:00.695Z,11.90
2023-05-11T09:40:34.244Z,11.63
2023-05-11T09:43:03.426Z,13.10
2023-05-11T09:45:43.681Z,11.60
2023-05-11T09:48:25.360Z,12.10
2023-05-11T09:51:00.224Z,12.80
2023-05-11T09:53:36.199Z,11.10
2023-05-11T09:56:04.780Z,11.00
2023-05-11T09:58:51.762Z,12.10
2023-05-11T10:01:30.368Z,12.77
2023-05-11T10:04:13.415Z,11.90
2023-05-11T10:06:49.572Z,13.20
2023-05-11T10:09:19.493Z,11.93
2023-05-11T10:11:47.825Z,12.87
2023-05-11T10:14:17.027Z,12.37
2023-05-11T10:16:48.757Z,12.57
2023-05-11T10:19:17.424Z,11.20
2023-05-11T10:21:46.283Z,11.37
2023-05-11T10:24:14.589Z,11.80
2023-05-11T10:26:43.223Z,11.60
2023-05-11T10:29:11.463Z,11.90
2023-05-11T10:31:40.154Z,11.47
2023-05-11T10:34:12.773Z,11.50
2023-05-11T10:36:40.903Z,11.83
2023-05-11T10:39:08.754Z,13.60
2023-05-11T10:41:51.935Z,12.37
2023-05-11T10:44:44.110Z,12.27
2023-05-11T10:47:31.411Z,11.47
2023-05-11T10:50:23.770Z,11.17
2023-05-11T10:53:11.556Z,11.27
2023-05-11T10:56:05.990Z,9.60
2023-05-11T10:58:53.929Z,9.03
2023-05-11T11:01:41.679Z,9.53
2023-05-11T11:04:11.383Z,8.23
2023-05-11T11:06:42.456Z,8.97
2023-05-11T11:09:14.641Z,8.67
2023-05-11T11:11:46.079Z,9.43
2023-05-11T11:14:15.555Z,8.53
2023-05-11T11:17:22.378Z,9.13
2023-05-11T11:19:50.647Z,8.40
2023-05-11T11:22:50.128Z,9.40
2023-05-11T11:25:59.034Z,8.27
2023-05-11T11:28:27.146Z,9.27
2023-05-11T11:31:24.084Z,7.63
2023-05-11T11:33:52.150Z,7.23
2023-05-11T11:36:40.260Z,7.67
2023-05-11T11:39:09.582Z,7.70
2023-05-11T11:41:38.180Z,6.33
2023-05-11T11:44:06.410Z,6.73
2023-05-11T11:46:34.646Z,6.57
2023-05-11T11:49:09.130Z,6.87
2023-05-11T11:51:40.190Z,6.03
2023-05-11T11:54:09.903Z,6.10
2023-05-11T11:56:40.337Z,5.80
2023-05-11T11:59:11.806Z,7.83
2023-05-11T12:01:40.828Z,5.77
2023-05-11T12:04:50.765Z,5.88
2023-05-11T12:07:21.581Z,5.83
2023-05-11T12:09:52.798Z,6.83
2023-05-11T12:12:22.019Z,6.27
2023-05-11T12:14:50.231Z,6.07
2023-05-11T12:17:28.466Z,6.07
2023-05-11T12:20:11.750Z,6.87
2023-05-11T12:22:39.826Z,5.10
2023-05-11T12:25:11.361Z,5.00
2023-05-11T12:27:48.301Z,4.80
2023-05-11T12:30:23.500Z,4.50
2023-05-11T12:32:56.436Z,5.47
2023-05-11T12:35:26.336Z,4.97
2023-05-11T12:37:54.928Z,7.33
2023-05-11T12:40:24.762Z,4.63
2023-05-11T12:42:53.668Z,6.23
2023-05-11T12:45:23.670Z,5.63
2023-05-11T12:47:52.770Z,5.27
2023-05-11T12:50:21.808Z,4.77
2023-05-11T12:52:50.246Z,5.37
2023-05-11T12:55:29.250Z,7.07
2023-05-11T12:58:09.913Z,5.00
2023-05-11T13:00:38.426Z,11.80
2023-05-11T13:03:06.452Z,8.60
2023-05-11T13:05:34.768Z,6.07
2023-05-11T13:08:04.784Z,5.23
2023-05-11T13:10:34.399Z,6.03
2023-05-11T13:13:02.404Z,5.33
2023-05-11T13:15:31.270Z,4.90
2023-05-11T13:18:00.771Z,6.07
2023-05-11T13:20:30.866Z,6.50
2023-05-11T13:23:07.065Z,6.13
2023-05-11T13:25:53.256Z,5.63
2023-05-11T13:28:23.278Z,5.60
2023-05-11T13:30:52.372Z,5.40
2023-05-11T13:33:20.568Z,5.03
2023-05-11T13:35:48.826Z,4.43
2023-05-11T13:38:16.709Z,6.13
2023-05-11T13:40:46.240Z,4.87
2023-05-11T13:43:14.093Z,5.50
2023-05-11T13:45:42.111Z,5.57
2023-05-11T13:48:11.071Z,5.20
2023-05-11T13:50:39.669Z,4.73
2023-05-11T13:53:07.706Z,5.30
2023-05-11T13:55:38.024Z,4.70
2023-05-11T13:58:08.342Z,6.07
2023-05-11T14:00:36.681Z,5.33
2023-05-11T14:03:05.103Z,5.63
2023-05-11T14:05:33.262Z,4.37
2023-05-11T14:08:01.218Z,4.43
2023-05-11T14:10:29.927Z,4.80
2023-05-11T14:12:57.977Z,5.43
2023-05-11T14:15:27.225Z,4.93
2023-05-11T14:17:55.343Z,8.40
2023-05-11T14:20:23.574Z,6.10
2023-05-11T14:22:51.467Z,4.90
2023-05-11T14:25:19.599Z,6.00
2023-05-11T14:27:49.224Z,5.80
2023-05-11T14:30:17.142Z,6.13
2023-05-11T14:32:46.987Z,5.27
2023-05-11T14:35:15.048Z,3.90
2023-05-11T14:37:43.385Z,3.83
2023-05-11T14:40:11.761Z,3.20
2023-05-11T14:42:39.640Z,3.70
2023-05-11T14:45:08.858Z,2.80
2023-05-11T14:47:36.958Z,2.80
2023-05-11T14:50:07.746Z,3.00
2023-05-11T14:52:35.665Z,2.90
2023-05-11T14:55:03.704Z,4.97
2023-05-11T14:57:31.662Z,2.00
2023-05-11T15:00:00.676Z,2.60
2023-05-11T15:02:29.987Z,2.23
2023-05-11T15:04:58.021Z,1.80
2023-05-11T15:07:27.711Z,2.20
2023-05-11T15:09:55.918Z,2.53
2023-05-11T15:12:24.597Z,1.93
2023-05-11T15:14:52.631Z,2.10
2023-05-11T15:17:20.696Z,1.73
2023-05-11T15:19:48.884Z,3.73
2023-05-11T15:22:17.619Z,3.33
2023-05-11T15:24:46.952Z,2.30
2023-05-11T15:27:14.946Z,1.50
2023-05-11T15:29:43.148Z,1.97
2023-05-11T15:32:14.991Z,1.93
2023-05-11T15:34:58.028Z,1.97
2023-05-11T15:37:26.992Z,1.53
2023-05-11T15:39:56.602Z,1.97
2023-05-11T15:42:24.611Z,1.23
2023-05-11T15:44:52.656Z,1.90
2023-05-11T15:47:20.743Z,2.17
2023-05-11T15:49:48.710Z,1.97
2023-05-11T15:52:16.913Z,1.50
2023-05-11T15:54:44.832Z,2.37
2023-05-11T15:57:14.233Z,1.70
2023-05-11T15:59:42.101Z,2.80
2023-05-11T16:02:10.107Z,2.20
2023-05-11T16:04:38.345Z,3.37
2023-05-11T16:07:07.052Z,2.30
2023-05-11T16:09:35.228Z,3.30
2023-05-11T16:12:03.114Z,3.53
2023-05-11T16:14:32.595Z,4.30
2023-05-11T16:17:01.507Z,2.17
2023-05-11T16:19:31.439Z,3.53
2023-05-11T16:21:59.357Z,3.10
2023-05-11T16:24:28.225Z,3.13
2023-05-11T16:26:56.368Z,2.97
2023-05-11T16:29:26.085Z,2.47
2023-05-11T16:31:56.500Z,1.97
2023-05-11T16:34:24.461Z,4.63
2023-05-11T16:36:52.817Z,2.13
2023-05-11T16:39:20.674Z,1.90
2023-05-11T16:41:48.710Z,2.60
2023-05-11T16:44:16.710Z,6.30
2023-05-11T16:46:44.741Z,5.10
2023-05-11T16:49:14.474Z,3.30
2023-05-11T16:51:43.285Z,2.43
2023-05-11T16:54:11.530Z,2.80
2023-05-11T16:56:39.503Z,3.07
2023-05-11T16:59:08.850Z,2.20
2023-05-11T17:01:36.867Z,3.47
2023-05-11T17:04:05.349Z,4.77
2023-05-11T17:06:34.750Z,6.10
2023-05-11T17:09:02.714Z,4.83
2023-05-11T17:11:30.819Z,4.50
2023-05-11T17:13:58.788Z,6.53
2023-05-11T17:16:27.021Z,4.60
2023-05-11T17:18:56.323Z,4.80
2023-05-11T17:21:26.657Z,12.23
2023-05-11T17:23:55.896Z,7.53
2023-05-11T17:26:27.473Z,6.63
2023-05-11T17:29:01.036Z,5.33
2023-05-11T17:31:29.153Z,5.00
2023-05-11T17:33:59.012Z,6.13
2023-05-11T17:36:29.234Z,4.23
2023-05-11T17:38:59.037Z,4.63
2023-05-11T17:41:26.929Z,3.87
2023-05-11T17:43:54.998Z,4.37
2023-05-11T17:46:23.016Z,4.00
2023-05-11T17:48:52.585Z,3.63
2023-05-11T17:51:20.485Z,4.43
2023-05-11T17:53:49.858Z,3.97
2023-05-11T17:56:19.192Z,3.40
2023-05-11T17:58:47.754Z,4.50
2023-05-11T18:01:15.705Z,4.53
2023-05-11T18:03:43.820Z,3.00
2023-05-11T18:06:11.851Z,3.43
2023-05-11T18:08:40.467Z,4.30
2023-05-11T18:11:10.163Z,4.67
2023-05-11T18:13:39.562Z,4.27
2023-05-11T18:16:08.428Z,4.30
2023-05-11T18:18:36.954Z,3.00
2023-05-11T18:21:10.652Z,3.00
2023-05-11T18:23:39.199Z,3.20
2023-05-11T18:26:07.763Z,3.87
2023-05-11T18:28:35.763Z,4.27
2023-05-11T18:31:05.174Z,4.37
2023-05-11T18:33:33.064Z,3.90
2023-05-11T18:36:02.642Z,3.43
2023-05-11T18:38:30.855Z,5.03
2023-05-11T18:40:58.870Z,4.10
2023-05-11T18:43:26.881Z,4.93
2023-05-11T18:45:55.268Z,3.67
2023-05-11T18:48:24.706Z,3.97
2023-05-11T18:50:55.511Z,4.87
2023-05-11T18:53:23.580Z,4.60
2023-05-11T18:55:53.708Z,5.03
2023-05-11T18:58:22.291Z,4.87
2023-05-11T19:00:50.476Z,5.60
2023-05-11T19:03:20.547Z,4.83
2023-05-11T19:05:50.419Z,6.50
2023-05-11T19:08:18.644Z,5.47
2023-05-11T19:10:48.162Z,7.37
2023-05-11T19:13:16.997Z,6.10
2023-05-11T19:15:45.110Z,5.07
2023-05-11T19:18:13.217Z,4.60
2023-05-11T19:20:41.461Z,7.40
2023-05-11T19:23:10.768Z,6.10
2023-05-11T19:25:39.014Z,6.87
2023-05-11T19:28:07.042Z,6.87
2023-05-11T19:30:35.125Z,6.87
2023-05-11T19:33:03.002Z,6.40
2023-05-11T19:35:31.612Z,7.63
2023-05-11T19:37:59.722Z,6.10
2023-05-11T19:43:00.992Z,8.70
2023-05-11T19:45:31.302Z,8.13
2023-05-11T19:48:01.152Z,8.20
2023-05-11T19:50:29.048Z,7.37
2023-05-11T19:52:57.699Z,7.50
2023-05-11T19:55:25.597Z,6.77
2023-05-11T19:57:54.996Z,9.30
2023-05-11T20:00:25.211Z,7.67
2023-05-11T20:02:53.304Z,7.60
2023-05-11T20:05:21.513Z,8.10
2023-05-11T20:07:49.983Z,7.27
2023-05-11T20:10:18.042Z,9.80
2023-05-11T20:12:46.390Z,8.20
2023-05-11T20:15:15.858Z,8.37
2023-05-11T20:17:44.050Z,10.17
2023-05-11T20:20:13.235Z,9.27
2023-05-11T20:22:42.257Z,9.50
2023-05-11T20:25:17.805Z,9.77
2023-05-11T20:27:46.476Z,10.23
2023-05-11T20:30:16.394Z,9.30
2023-05-11T20:35:15.700Z,9.63
2023-05-11T20:37:43.929Z,11.07
2023-05-11T20:40:12.868Z,9.60
2023-05-11T20:42:40.960Z,10.30
2023-05-11T20:45:10.024Z,9.43
2023-05-11T20:47:39.416Z,9.93
2023-05-11T20:50:09.913Z,13.40
2023-05-11T20:52:38.348Z,11.17
2023-05-11T20:55:07.124Z,11.20
2023-05-11T20:57:35.134Z,10.63
2023-05-11T21:00:04.767Z,10.47
2023-05-11T21:02:33.294Z,9.50
2023-05-11T21:05:02.776Z,9.73
2023-05-11T21:07:31.190Z,10.83
2023-05-11T21:09:59.140Z,10.77
2023-05-11T21:12:27.235Z,10.83
2023-05-11T21:14:57.006Z,10.00
2023-05-11T21:17:25.406Z,11.40
2023-05-11T21:19:53.547Z,9.57
2023-05-11T21:22:22.819Z,10.67
2023-05-11T21:24:51.005Z,9.13
2023-05-11T21:27:18.828Z,10.60
2023-05-11T21:29:48.063Z,10.70
2023-05-11T21:32:16.089Z,9.23
2023-05-11T21:34:44.391Z,9.40
2023-05-11T21:37:14.493Z,9.30
2023-05-11T21:39:44.365Z,9.60
2023-05-11T21:42:12.704Z,9.20
2023-05-11T21:44:40.579Z,8.63
2023-05-11T21:47:09.135Z,9.47
2023-05-11T21:49:37.033Z,9.00
2023-05-11T21:52:06.486Z,9.03
2023-05-11T21:54:34.390Z,10.03
2023-05-11T21:57:04.120Z,8.40
2023-05-11T21:59:32.002Z,8.00
2023-05-11T22:01:59.958Z,7.93
2023-05-11T22:04:28.145Z,7.27
2023-05-11T22:06:59.471Z,8.50
2023-05-11T22:09:30.032Z,7.77
2023-05-11T22:11:58.154Z,8.70
2023-05-11T22:14:27.633Z,7.83
2023-05-11T22:16:55.596Z,7.63
2023-05-11T22:19:23.591Z,8.27
2023-05-11T22:21:51.561Z,8.80
2023-05-11T22:24:21.293Z,8.90
2023-05-11T22:26:49.141Z,8.13
2023-05-11T22:29:17.059Z,8.03
2023-05-11T22:31:46.618Z,6.93
2023-05-11T22:34:14.538Z,7.50
2023-05-11T22:36:42.799Z,7.27
2023-05-11T22:39:11.928Z,10.47
2023-05-11T22:41:40.089Z,7.60
2023-05-11T22:44:07.997Z,6.57
2023-05-11T22:46:36.150Z,8.40
2023-05-11T22:49:05.443Z,6.77
2023-05-11T22:51:33.429Z,6.60
2023-05-11T22:54:01.370Z,7.47
2023-05-11T22:56:30.630Z,6.87
2023-05-11T22:58:59.763Z,6.70
2023-05-11T23:01:28.089Z,6.47
2023-05-11T23:03:56.173Z,7.20
2023-05-11T23:06:25.792Z,6.77
2023-05-11T23:08:53.822Z,7.03
2023-05-11T23:11:21.963Z,6.43
2023-05-11T23:13:49.806Z,6.33
2023-05-11T23:16:19.208Z,7.27
2023-05-11T23:18:47.467Z,5.87
2023-05-11T23:21:15.539Z,5.50
2023-05-11T23:23:45.035Z,6.90
2023-05-11T23:26:13.763Z,6.07
2023-05-11T23:28:41.852Z,6.03
2023-05-11T23:31:09.758Z,9.27
2023-05-11T23:33:38.101Z,5.77
2023-05-11T23:36:06.593Z,5.23
2023-05-11T23:38:34.597Z,5.17
2023-05-11T23:41:04.053Z,5.57
2023-05-11T23:43:33.322Z,5.33
2023-05-11T23:46:02.374Z,6.07
2023-05-11T23:48:30.592Z,5.33
2023-05-11T23:50:58.598Z,5.90
2023-05-11T23:53:26.506Z,6.13
2023-05-11T23:55:54.489Z,6.67
2023-05-11T23:58:24.001Z,5.73
